sensor_id;sensor_type;location;lat;lon;timestamp;P1;durP1;ratioP1;P2;durP2;ratioP2
52508;SDS011;38420;53.150;6.370;2023-07-13T00:01:11;10.18;;;4.85;;
52508;SDS011;38420;53.150;6.370;2023-07-13T00:03:41;11.25;;;3.83;;
52508;SDS011;38420;53.150;6.370;2023-07-13T00:06:07;14.60;;;3.83;;
52508;SDS011;38420;53.150;6.370;2023-07-13T00:08:33;10.23;;;4.38;;
52508;SDS011;38420;53.150;6.370;2023-07-13T00:11:02;11.82;;;3.65;;
52508;SDS011;38420;53.150;6.370;2023-07-13T00:13:29;12.43;;;3.83;;
52508;SDS011;38420;53.150;6.370;2023-07-13T00:15:56;14.35;;;4.28;;
52508;SDS011;38420;53.150;6.370;2023-07-13T00:18:23;13.95;;;4.38;;
52508;SDS011;38420;53.150;6.370;2023-07-13T00:20:49;11.80;;;5.07;;
52508;SDS011;38420;53.150;6.370;2023-07-13T00:23:15;17.35;;;5.10;;
52508;SDS011;38420;53.150;6.370;2023-07-13T00:25:42;13.85;;;4.43;;
52508;SDS011;38420;53.150;6.370;2023-07-13T00:28:07;11.25;;;4.07;;
52508;SDS011;38420;53.150;6.370;2023-07-13T00:30:33;14.38;;;4.65;;
52508;SDS011;38420;53.150;6.370;2023-07-13T00:32:59;17.95;;;5.20;;
52508;SDS011;38420;53.150;6.370;2023-07-13T00:35:26;21.05;;;4.88;;
52508;SDS011;38420;53.150;6.370;2023-07-13T00:37:55;16.70;;;4.80;;
52508;SDS011;38420;53.150;6.370;2023-07-13T00:40:21;19.13;;;4.50;;
52508;SDS011;38420;53.150;6.370;2023-07-13T00:42:47;16.63;;;4.20;;
52508;SDS011;38420;53.150;6.370;2023-07-13T00:47:40;17.35;;;5.70;;
52508;SDS011;38420;53.150;6.370;2023-07-13T00:50:07;10.23;;;4.78;;
52508;SDS011;38420;53.150;6.370;2023-07-13T00:52:37;17.37;;;4.67;;
52508;SDS011;38420;53.150;6.370;2023-07-13T00:55:05;11.07;;;4.32;;
52508;SDS011;38420;53.150;6.370;2023-07-13T00:57:32;11.95;;;4.60;;
52508;SDS011;38420;53.150;6.370;2023-07-13T00:59:58;14.05;;;4.70;;
52508;SDS011;38420;53.150;6.370;2023-07-13T01:02:32;9.75;;;4.22;;
52508;SDS011;38420;53.150;6.370;2023-07-13T01:04:59;10.48;;;4.50;;
52508;SDS011;38420;53.150;6.370;2023-07-13T01:07:25;15.05;;;5.82;;
52508;SDS011;38420;53.150;6.370;2023-07-13T01:09:51;12.45;;;4.53;;
52508;SDS011;38420;53.150;6.370;2023-07-13T01:12:16;17.52;;;5.22;;
52508;SDS011;38420;53.150;6.370;2023-07-13T01:14:42;18.42;;;5.10;;
52508;SDS011;38420;53.150;6.370;2023-07-13T01:17:09;17.80;;;5.07;;
52508;SDS011;38420;53.150;6.370;2023-07-13T01:19:36;18.25;;;4.90;;
52508;SDS011;38420;53.150;6.370;2023-07-13T01:22:08;15.10;;;4.53;;
52508;SDS011;38420;53.150;6.370;2023-07-13T01:24:39;18.38;;;4.70;;
52508;SDS011;38420;53.150;6.370;2023-07-13T01:27:07;16.17;;;4.55;;
52508;SDS011;38420;53.150;6.370;2023-07-13T01:29:34;8.85;;;3.50;;
52508;SDS011;38420;53.150;6.370;2023-07-13T01:32:07;11.63;;;4.38;;
52508;SDS011;38420;53.150;6.370;2023-07-13T01:34:38;12.93;;;3.20;;
52508;SDS011;38420;53.150;6.370;2023-07-13T01:37:07;12.07;;;2.88;;
52508;SDS011;38420;53.150;6.370;2023-07-13T01:39:34;8.50;;;2.33;;
52508;SDS011;38420;53.150;6.370;2023-07-13T01:42:00;5.90;;;2.33;;
52508;SDS011;38420;53.150;6.370;2023-07-13T01:44:25;12.43;;;2.47;;
52508;SDS011;38420;53.150;6.370;2023-07-13T01:46:51;9.52;;;2.35;;
52508;SDS011;38420;53.150;6.370;2023-07-13T01:49:17;8.02;;;2.20;;
52508;SDS011;38420;53.150;6.370;2023-07-13T01:51:43;6.53;;;2.13;;
52508;SDS011;38420;53.150;6.370;2023-07-13T01:54:08;11.85;;;2.20;;
52508;SDS011;38420;53.150;6.370;2023-07-13T01:56:34;8.00;;;2.38;;
52508;SDS011;38420;53.150;6.370;2023-07-13T01:59:00;6.47;;;2.22;;
52508;SDS011;38420;53.150;6.370;2023-07-13T02:01:25;5.57;;;1.90;;
52508;SDS011;38420;53.150;6.370;2023-07-13T02:03:51;7.40;;;2.45;;
52508;SDS011;38420;53.150;6.370;2023-07-13T02:06:17;5.88;;;1.70;;
52508;SDS011;38420;53.150;6.370;2023-07-13T02:08:42;4.80;;;1.27;;
52508;SDS011;38420;53.150;6.370;2023-07-13T02:11:08;5.05;;;1.42;;
52508;SDS011;38420;53.150;6.370;2023-07-13T02:13:34;5.93;;;1.45;;
52508;SDS011;38420;53.150;6.370;2023-07-13T02:16:00;5.53;;;1.40;;
52508;SDS011;38420;53.150;6.370;2023-07-13T02:18:25;6.32;;;1.25;;
52508;SDS011;38420;53.150;6.370;2023-07-13T02:20:51;4.40;;;1.50;;
52508;SDS011;38420;53.150;6.370;2023-07-13T02:23:17;4.18;;;1.35;;
52508;SDS011;38420;53.150;6.370;2023-07-13T02:25:43;5.35;;;1.40;;
52508;SDS011;38420;53.150;6.370;2023-07-13T02:28:09;6.15;;;2.35;;
52508;SDS011;38420;53.150;6.370;2023-07-13T02:30:35;5.22;;;2.30;;
52508;SDS011;38420;53.150;6.370;2023-07-13T02:33:01;6.57;;;1.88;;
52508;SDS011;38420;53.150;6.370;2023-07-13T02:35:27;5.70;;;1.85;;
52508;SDS011;38420;53.150;6.370;2023-07-13T02:37:53;11.73;;;1.88;;
52508;SDS011;38420;53.150;6.370;2023-07-13T02:40:19;7.25;;;2.03;;
52508;SDS011;38420;53.150;6.370;2023-07-13T02:42:45;9.57;;;3.00;;
52508;SDS011;38420;53.150;6.370;2023-07-13T02:45:10;9.52;;;3.55;;
52508;SDS011;38420;53.150;6.370;2023-07-13T02:47:39;11.77;;;4.28;;
52508;SDS011;38420;53.150;6.370;2023-07-13T02:50:06;13.52;;;4.63;;
52508;SDS011;38420;53.150;6.370;2023-07-13T02:52:32;15.60;;;5.32;;
52508;SDS011;38420;53.150;6.370;2023-07-13T02:54:58;14.93;;;5.10;;
52508;SDS011;38420;53.150;6.370;2023-07-13T02:57:24;18.95;;;5.68;;
52508;SDS011;38420;53.150;6.370;2023-07-13T02:59:50;19.85;;;6.18;;
52508;SDS011;38420;53.150;6.370;2023-07-13T03:02:15;19.88;;;5.45;;
52508;SDS011;38420;53.150;6.370;2023-07-13T03:04:41;19.33;;;6.15;;
52508;SDS011;38420;53.150;6.370;2023-07-13T03:07:07;21.05;;;6.35;;
52508;SDS011;38420;53.150;6.370;2023-07-13T03:09:33;12.15;;;6.00;;
52508;SDS011;38420;53.150;6.370;2023-07-13T03:12:00;19.25;;;6.22;;
52508;SDS011;38420;53.150;6.370;2023-07-13T03:14:26;17.85;;;6.32;;
52508;SDS011;38420;53.150;6.370;2023-07-13T03:16:52;15.57;;;5.97;;
52508;SDS011;38420;53.150;6.370;2023-07-13T03:19:18;15.93;;;5.78;;
52508;SDS011;38420;53.150;6.370;2023-07-13T03:21:44;16.08;;;6.05;;
52508;SDS011;38420;53.150;6.370;2023-07-13T03:24:10;17.25;;;7.03;;
52508;SDS011;38420;53.150;6.370;2023-07-13T03:26:36;17.20;;;6.20;;
52508;SDS011;38420;53.150;6.370;2023-07-13T03:29:03;17.92;;;5.95;;
52508;SDS011;38420;53.150;6.370;2023-07-13T03:31:32;11.15;;;6.03;;
52508;SDS011;38420;53.150;6.370;2023-07-13T03:33:59;16.85;;;5.72;;
52508;SDS011;38420;53.150;6.370;2023-07-13T03:36:26;21.20;;;6.72;;
52508;SDS011;38420;53.150;6.370;2023-07-13T03:38:54;16.38;;;6.22;;
52508;SDS011;38420;53.150;6.370;2023-07-13T03:41:22;17.02;;;5.88;;
52508;SDS011;38420;53.150;6.370;2023-07-13T03:43:48;20.25;;;6.15;;
52508;SDS011;38420;53.150;6.370;2023-07-13T03:46:14;18.67;;;6.53;;
52508;SDS011;38420;53.150;6.370;2023-07-13T03:48:42;12.63;;;5.35;;
52508;SDS011;38420;53.150;6.370;2023-07-13T03:51:09;13.00;;;6.50;;
52508;SDS011;38420;53.150;6.370;2023-07-13T03:53:39;15.88;;;5.97;;
52508;SDS011;38420;53.150;6.370;2023-07-13T03:56:06;17.45;;;6.00;;
52508;SDS011;38420;53.150;6.370;2023-07-13T03:58:33;14.70;;;5.55;;
52508;SDS011;38420;53.150;6.370;2023-07-13T04:01:01;15.10;;;5.70;;
52508;SDS011;38420;53.150;6.370;2023-07-13T04:03:28;17.48;;;5.85;;
52508;SDS011;38420;53.150;6.370;2023-07-13T04:05:58;18.23;;;5.85;;
52508;SDS011;38420;53.150;6.370;2023-07-13T04:08:28;14.20;;;5.38;;
52508;SDS011;38420;53.150;6.370;2023-07-13T04:10:56;17.02;;;5.95;;
52508;SDS011;38420;53.150;6.370;2023-07-13T04:13:22;14.60;;;5.55;;
52508;SDS011;38420;53.150;6.370;2023-07-13T04:15:48;19.33;;;5.78;;
52508;SDS011;38420;53.150;6.370;2023-07-13T04:18:14;26.58;;;7.20;;
52508;SDS011;38420;53.150;6.370;2023-07-13T04:20:40;19.08;;;6.22;;
52508;SDS011;38420;53.150;6.370;2023-07-13T04:23:06;19.05;;;5.65;;
52508;SDS011;38420;53.150;6.370;2023-07-13T04:25:31;14.32;;;6.20;;
52508;SDS011;38420;53.150;6.370;2023-07-13T04:27:57;20.45;;;6.30;;
52508;SDS011;38420;53.150;6.370;2023-07-13T04:30:23;19.38;;;5.78;;
52508;SDS011;38420;53.150;6.370;2023-07-13T04:32:50;18.60;;;6.30;;
52508;SDS011;38420;53.150;6.370;2023-07-13T04:35:17;16.10;;;6.20;;
52508;SDS011;38420;53.150;6.370;2023-07-13T04:37:46;19.77;;;5.90;;
52508;SDS011;38420;53.150;6.370;2023-07-13T04:40:13;18.20;;;5.72;;
52508;SDS011;38420;53.150;6.370;2023-07-13T04:42:39;19.23;;;5.65;;
52508;SDS011;38420;53.150;6.370;2023-07-13T04:45:06;14.30;;;5.50;;
52508;SDS011;38420;53.150;6.370;2023-07-13T04:47:32;20.80;;;6.18;;
52508;SDS011;38420;53.150;6.370;2023-07-13T04:49:58;22.83;;;6.80;;
52508;SDS011;38420;53.150;6.370;2023-07-13T04:52:24;17.40;;;6.40;;
52508;SDS011;38420;53.150;6.370;2023-07-13T04:54:49;22.45;;;6.78;;
52508;SDS011;38420;53.150;6.370;2023-07-13T04:57:15;25.10;;;6.47;;
52508;SDS011;38420;53.150;6.370;2023-07-13T04:59:41;24.67;;;6.57;;
52508;SDS011;38420;53.150;6.370;2023-07-13T05:02:07;24.52;;;7.35;;
52508;SDS011;38420;53.150;6.370;2023-07-13T05:04:33;19.85;;;6.00;;
52508;SDS011;38420;53.150;6.370;2023-07-13T05:06:59;23.63;;;6.03;;
52508;SDS011;38420;53.150;6.370;2023-07-13T05:09:25;21.90;;;5.63;;
52508;SDS011;38420;53.150;6.370;2023-07-13T05:11:50;17.38;;;5.95;;
52508;SDS011;38420;53.150;6.370;2023-07-13T05:14:16;14.65;;;5.65;;
52508;SDS011;38420;53.150;6.370;2023-07-13T05:16:42;19.00;;;5.13;;
52508;SDS011;38420;53.150;6.370;2023-07-13T05:19:08;13.02;;;5.70;;
52508;SDS011;38420;53.150;6.370;2023-07-13T05:21:34;20.52;;;5.95;;
52508;SDS011;38420;53.150;6.370;2023-07-13T05:24:00;16.98;;;5.43;;
52508;SDS011;38420;53.150;6.370;2023-07-13T05:26:26;18.63;;;5.45;;
52508;SDS011;38420;53.150;6.370;2023-07-13T05:28:52;22.23;;;5.88;;
52508;SDS011;38420;53.150;6.370;2023-07-13T05:31:18;19.52;;;5.50;;
52508;SDS011;38420;53.150;6.370;2023-07-13T05:33:43;20.60;;;5.80;;
52508;SDS011;38420;53.150;6.370;2023-07-13T05:36:09;14.15;;;5.10;;
52508;SDS011;38420;53.150;6.370;2023-07-13T05:38:35;17.45;;;5.82;;
52508;SDS011;38420;53.150;6.370;2023-07-13T05:41:01;18.13;;;5.95;;
52508;SDS011;38420;53.150;6.370;2023-07-13T05:43:26;15.48;;;6.10;;
52508;SDS011;38420;53.150;6.370;2023-07-13T05:45:52;15.48;;;5.43;;
52508;SDS011;38420;53.150;6.370;2023-07-13T05:48:19;11.70;;;5.60;;
52508;SDS011;38420;53.150;6.370;2023-07-13T05:50:45;18.52;;;4.97;;
52508;SDS011;38420;53.150;6.370;2023-07-13T05:53:11;14.70;;;4.25;;
52508;SDS011;38420;53.150;6.370;2023-07-13T05:55:40;16.90;;;4.65;;
52508;SDS011;38420;53.150;6.370;2023-07-13T05:58:12;13.43;;;4.60;;
52508;SDS011;38420;53.150;6.370;2023-07-13T06:00:38;16.20;;;5.00;;
52508;SDS011;38420;53.150;6.370;2023-07-13T06:03:05;17.60;;;5.53;;
52508;SDS011;38420;53.150;6.370;2023-07-13T06:05:31;15.85;;;4.78;;
52508;SDS011;38420;53.150;6.370;2023-07-13T06:07:58;13.60;;;4.63;;
52508;SDS011;38420;53.150;6.370;2023-07-13T06:10:24;13.82;;;4.32;;
52508;SDS011;38420;53.150;6.370;2023-07-13T06:12:50;9.10;;;4.13;;
52508;SDS011;38420;53.150;6.370;2023-07-13T06:15:16;13.57;;;3.90;;
52508;SDS011;38420;53.150;6.370;2023-07-13T06:17:41;12.63;;;3.63;;
52508;SDS011;38420;53.150;6.370;2023-07-13T06:20:07;11.85;;;3.88;;
52508;SDS011;38420;53.150;6.370;2023-07-13T06:22:33;9.93;;;3.47;;
52508;SDS011;38420;53.150;6.370;2023-07-13T06:24:59;10.30;;;3.25;;
52508;SDS011;38420;53.150;6.370;2023-07-13T06:27:24;13.02;;;4.15;;
52508;SDS011;38420;53.150;6.370;2023-07-13T06:29:50;11.75;;;3.22;;
52508;SDS011;38420;53.150;6.370;2023-07-13T06:32:16;11.80;;;3.72;;
52508;SDS011;38420;53.150;6.370;2023-07-13T06:34:42;14.20;;;3.67;;
52508;SDS011;38420;53.150;6.370;2023-07-13T06:37:08;13.43;;;3.55;;
52508;SDS011;38420;53.150;6.370;2023-07-13T06:39:35;9.60;;;3.30;;
52508;SDS011;38420;53.150;6.370;2023-07-13T06:42:00;12.63;;;3.25;;
52508;SDS011;38420;53.150;6.370;2023-07-13T06:44:26;12.13;;;3.60;;
52508;SDS011;38420;53.150;6.370;2023-07-13T06:46:52;11.38;;;2.90;;
52508;SDS011;38420;53.150;6.370;2023-07-13T06:49:17;12.15;;;3.67;;
52508;SDS011;38420;53.150;6.370;2023-07-13T06:51:43;13.63;;;3.13;;
52508;SDS011;38420;53.150;6.370;2023-07-13T06:54:08;13.80;;;2.97;;
52508;SDS011;38420;53.150;6.370;2023-07-13T06:56:34;11.20;;;2.83;;
52508;SDS011;38420;53.150;6.370;2023-07-13T06:59:00;10.43;;;2.92;;
52508;SDS011;38420;53.150;6.370;2023-07-13T07:01:26;9.10;;;2.80;;
52508;SDS011;38420;53.150;6.370;2023-07-13T07:03:51;5.95;;;2.60;;
52508;SDS011;38420;53.150;6.370;2023-07-13T07:06:18;9.10;;;2.75;;
52508;SDS011;38420;53.150;6.370;2023-07-13T07:08:45;8.73;;;2.63;;
52508;SDS011;38420;53.150;6.370;2023-07-13T07:11:12;5.13;;;2.50;;
52508;SDS011;38420;53.150;6.370;2023-07-13T07:13:39;4.75;;;1.90;;
52508;SDS011;38420;53.150;6.370;2023-07-13T07:16:05;4.50;;;1.60;;
52508;SDS011;38420;53.150;6.370;2023-07-13T07:18:31;5.30;;;2.00;;
52508;SDS011;38420;53.150;6.370;2023-07-13T07:20:57;6.28;;;2.20;;
52508;SDS011;38420;53.150;6.370;2023-07-13T07:23:23;7.80;;;2.10;;
52508;SDS011;38420;53.150;6.370;2023-07-13T07:25:48;5.55;;;3.08;;
52508;SDS011;38420;53.150;6.370;2023-07-13T07:28:15;6.07;;;2.25;;
52508;SDS011;38420;53.150;6.370;2023-07-13T07:30:45;7.88;;;2.28;;
52508;SDS011;38420;53.150;6.370;2023-07-13T07:33:11;7.63;;;2.70;;
52508;SDS011;38420;53.150;6.370;2023-07-13T07:35:36;7.65;;;2.83;;
52508;SDS011;38420;53.150;6.370;2023-07-13T07:38:02;9.85;;;3.38;;
52508;SDS011;38420;53.150;6.370;2023-07-13T07:40:28;9.82;;;2.80;;
52508;SDS011;38420;53.150;6.370;2023-07-13T07:42:54;5.93;;;1.95;;
52508;SDS011;38420;53.150;6.370;2023-07-13T07:45:20;6.72;;;1.90;;
52508;SDS011;38420;53.150;6.370;2023-07-13T07:47:45;6.50;;;2.38;;
52508;SDS011;38420;53.150;6.370;2023-07-13T07:50:11;7.50;;;2.55;;
52508;SDS011;38420;53.150;6.370;2023-07-13T07:52:37;11.73;;;3.17;;
52508;SDS011;38420;53.150;6.370;2023-07-13T07:55:04;6.47;;;2.47;;
52508;SDS011;38420;53.150;6.370;2023-07-13T07:57:30;6.13;;;2.42;;
52508;SDS011;38420;53.150;6.370;2023-07-13T07:59:56;6.28;;;2.78;;
52508;SDS011;38420;53.150;6.370;2023-07-13T08:02:22;10.93;;;2.75;;
52508;SDS011;38420;53.150;6.370;2023-07-13T08:04:47;8.32;;;3.38;;
52508;SDS011;38420;53.150;6.370;2023-07-13T08:07:13;9.48;;;2.80;;
52508;SDS011;38420;53.150;6.370;2023-07-13T08:09:39;6.80;;;3.00;;
52508;SDS011;38420;53.150;6.370;2023-07-13T08:12:04;8.95;;;2.83;;
52508;SDS011;38420;53.150;6.370;2023-07-13T08:14:32;5.45;;;2.50;;
52508;SDS011;38420;53.150;6.370;2023-07-13T08:16:58;8.07;;;2.58;;
52508;SDS011;38420;53.150;6.370;2023-07-13T08:19:23;7.95;;;2.88;;
52508;SDS011;38420;53.150;6.370;2023-07-13T08:21:49;6.13;;;2.60;;
52508;SDS011;38420;53.150;6.370;2023-07-13T08:24:15;7.10;;;3.00;;
52508;SDS011;38420;53.150;6.370;2023-07-13T08:26:43;6.75;;;2.80;;
52508;SDS011;38420;53.150;6.370;2023-07-13T08:29:10;7.40;;;2.30;;
52508;SDS011;38420;53.150;6.370;2023-07-13T08:31:35;9.07;;;2.65;;
52508;SDS011;38420;53.150;6.370;2023-07-13T08:34:01;9.40;;;2.20;;
52508;SDS011;38420;53.150;6.370;2023-07-13T08:36:27;4.90;;;2.53;;
52508;SDS011;38420;53.150;6.370;2023-07-13T08:38:54;5.70;;;2.03;;
52508;SDS011;38420;53.150;6.370;2023-07-13T08:41:19;5.63;;;2.25;;
52508;SDS011;38420;53.150;6.370;2023-07-13T08:43:47;9.05;;;2.33;;
52508;SDS011;38420;53.150;6.370;2023-07-13T08:46:16;6.15;;;2.30;;
52508;SDS011;38420;53.150;6.370;2023-07-13T08:48:54;5.82;;;2.10;;
52508;SDS011;38420;53.150;6.370;2023-07-13T08:53:58;9.13;;;2.88;;
52508;SDS011;38420;53.150;6.370;2023-07-13T08:56:28;5.07;;;2.27;;
52508;SDS011;38420;53.150;6.370;2023-07-13T08:58:58;6.78;;;2.10;;
52508;SDS011;38420;53.150;6.370;2023-07-13T09:04:48;6.87;;;1.93;;
52508;SDS011;38420;53.150;6.370;2023-07-13T09:17:57;8.40;;;3.03;;
52508;SDS011;38420;53.150;6.370;2023-07-13T09:23:01;5.90;;;2.80;;
52508;SDS011;38420;53.150;6.370;2023-07-13T09:25:36;4.78;;;2.38;;
52508;SDS011;38420;53.150;6.370;2023-07-13T09:28:08;12.63;;;2.67;;
52508;SDS011;38420;53.150;6.370;2023-07-13T09:33:18;6.45;;;2.28;;
52508;SDS011;38420;53.150;6.370;2023-07-13T09:35:45;6.00;;;2.67;;
52508;SDS011;38420;53.150;6.370;2023-07-13T09:38:12;4.15;;;2.00;;
52508;SDS011;38420;53.150;6.370;2023-07-13T09:43:27;6.70;;;2.08;;
52508;SDS011;38420;53.150;6.370;2023-07-13T09:45:56;4.00;;;1.80;;
52508;SDS011;38420;53.150;6.370;2023-07-13T09:48:22;7.55;;;2.35;;
52508;SDS011;38420;53.150;6.370;2023-07-13T09:50:49;4.15;;;2.08;;
52508;SDS011;38420;53.150;6.370;2023-07-13T09:53:19;5.55;;;1.80;;
52508;SDS011;38420;53.150;6.370;2023-07-13T09:55:46;5.28;;;2.22;;
52508;SDS011;38420;53.150;6.370;2023-07-13T09:58:22;4.30;;;1.58;;
52508;SDS011;38420;53.150;6.370;2023-07-13T10:00:54;4.25;;;1.17;;
52508;SDS011;38420;53.150;6.370;2023-07-13T10:03:22;5.60;;;1.55;;
52508;SDS011;38420;53.150;6.370;2023-07-13T10:05:53;6.63;;;1.48;;
52508;SDS011;38420;53.150;6.370;2023-07-13T10:08:27;4.90;;;1.30;;
52508;SDS011;38420;53.150;6.370;2023-07-13T10:10:59;3.80;;;1.38;;
52508;SDS011;38420;53.150;6.370;2023-07-13T10:13:27;3.22;;;1.48;;
52508;SDS011;38420;53.150;6.370;2023-07-13T10:16:02;3.33;;;1.85;;
52508;SDS011;38420;53.150;6.370;2023-07-13T10:18:31;5.20;;;1.30;;
52508;SDS011;38420;53.150;6.370;2023-07-13T10:21:18;3.33;;;1.10;;
52508;SDS011;38420;53.150;6.370;2023-07-13T10:23:54;3.78;;;1.45;;
52508;SDS011;38420;53.150;6.370;2023-07-13T10:26:27;4.30;;;1.20;;
52508;SDS011;38420;53.150;6.370;2023-07-13T10:28:56;2.95;;;1.20;;
52508;SDS011;38420;53.150;6.370;2023-07-13T10:31:26;3.95;;;1.00;;
52508;SDS011;38420;53.150;6.370;2023-07-13T10:33:51;4.20;;;1.25;;
52508;SDS011;38420;53.150;6.370;2023-07-13T10:39:10;6.10;;;2.00;;
52508;SDS011;38420;53.150;6.370;2023-07-13T10:41:55;2.83;;;1.20;;
52508;SDS011;38420;53.150;6.370;2023-07-13T10:46:56;3.47;;;1.23;;
52508;SDS011;38420;53.150;6.370;2023-07-13T10:52:02;2.78;;;1.05;;
52508;SDS011;38420;53.150;6.370;2023-07-13T10:59:46;4.07;;;1.00;;
52508;SDS011;38420;53.150;6.370;2023-07-13T11:02:28;3.40;;;1.40;;
52508;SDS011;38420;53.150;6.370;2023-07-13T11:04:54;2.78;;;1.23;;
52508;SDS011;38420;53.150;6.370;2023-07-13T11:07:28;4.80;;;1.98;;
52508;SDS011;38420;53.150;6.370;2023-07-13T11:10:02;5.80;;;1.70;;
52508;SDS011;38420;53.150;6.370;2023-07-13T11:15:30;6.50;;;1.35;;
52508;SDS011;38420;53.150;6.370;2023-07-13T11:20:45;7.38;;;2.53;;
52508;SDS011;38420;53.150;6.370;2023-07-13T11:25:42;4.82;;;2.00;;
52508;SDS011;38420;53.150;6.370;2023-07-13T11:30:38;3.78;;;1.25;;
52508;SDS011;38420;53.150;6.370;2023-07-13T11:33:22;4.65;;;1.38;;
52508;SDS011;38420;53.150;6.370;2023-07-13T11:38:38;4.95;;;1.52;;
52508;SDS011;38420;53.150;6.370;2023-07-13T11:41:10;6.80;;;2.00;;
52508;SDS011;38420;53.150;6.370;2023-07-13T11:46:20;3.50;;;1.17;;
52508;SDS011;38420;53.150;6.370;2023-07-13T11:48:47;2.88;;;1.00;;
52508;SDS011;38420;53.150;6.370;2023-07-13T11:53:53;2.90;;;1.10;;
52508;SDS011;38420;53.150;6.370;2023-07-13T11:56:20;4.85;;;1.30;;
52508;SDS011;38420;53.150;6.370;2023-07-13T11:58:48;8.05;;;1.45;;
52508;SDS011;38420;53.150;6.370;2023-07-13T12:01:23;4.05;;;1.60;;
52508;SDS011;38420;53.150;6.370;2023-07-13T12:03:51;4.20;;;1.58;;
52508;SDS011;38420;53.150;6.370;2023-07-13T12:06:26;3.45;;;1.50;;
52508;SDS011;38420;53.150;6.370;2023-07-13T12:09:02;3.70;;;1.55;;
52508;SDS011;38420;53.150;6.370;2023-07-13T12:11:40;2.95;;;1.38;;
52508;SDS011;38420;53.150;6.370;2023-07-13T12:14:14;5.53;;;1.58;;
52508;SDS011;38420;53.150;6.370;2023-07-13T12:16:40;4.22;;;1.40;;
52508;SDS011;38420;53.150;6.370;2023-07-13T12:19:09;3.53;;;1.27;;
52508;SDS011;38420;53.150;6.370;2023-07-13T12:21:42;7.25;;;1.83;;
52508;SDS011;38420;53.150;6.370;2023-07-13T12:24:19;5.60;;;1.52;;
52508;SDS011;38420;53.150;6.370;2023-07-13T12:27:05;3.05;;;1.25;;
52508;SDS011;38420;53.150;6.370;2023-07-13T12:29:48;3.03;;;1.58;;
52508;SDS011;38420;53.150;6.370;2023-07-13T12:32:24;4.32;;;1.40;;
52508;SDS011;38420;53.150;6.370;2023-07-13T12:34:51;4.68;;;1.63;;
52508;SDS011;38420;53.150;6.370;2023-07-13T12:37:18;6.10;;;1.58;;
52508;SDS011;38420;53.150;6.370;2023-07-13T12:39:45;5.43;;;1.48;;
52508;SDS011;38420;53.150;6.370;2023-07-13T12:44:53;4.60;;;1.43;;
52508;SDS011;38420;53.150;6.370;2023-07-13T12:47:22;3.35;;;1.40;;
52508;SDS011;38420;53.150;6.370;2023-07-13T12:49:49;5.72;;;1.33;;
52508;SDS011;38420;53.150;6.370;2023-07-13T12:52:21;4.65;;;1.58;;
52508;SDS011;38420;53.150;6.370;2023-07-13T12:55:05;5.18;;;1.75;;
52508;SDS011;38420;53.150;6.370;2023-07-13T12:57:45;5.15;;;1.80;;
52508;SDS011;38420;53.150;6.370;2023-07-13T13:02:58;5.55;;;1.48;;
52508;SDS011;38420;53.150;6.370;2023-07-13T13:05:29;5.38;;;1.48;;
52508;SDS011;38420;53.150;6.370;2023-07-13T13:07:55;3.22;;;1.15;;
52508;SDS011;38420;53.150;6.370;2023-07-13T13:10:22;5.88;;;1.48;;
52508;SDS011;38420;53.150;6.370;2023-07-13T13:12:47;6.25;;;1.83;;
52508;SDS011;38420;53.150;6.370;2023-07-13T13:15:13;4.60;;;1.17;;
52508;SDS011;38420;53.150;6.370;2023-07-13T13:17:39;4.13;;;1.10;;
52508;SDS011;38420;53.150;6.370;2023-07-13T13:20:24;2.17;;;1.20;;
52508;SDS011;38420;53.150;6.370;2023-07-13T13:22:53;3.28;;;1.30;;
52508;SDS011;38420;53.150;6.370;2023-07-13T13:25:20;8.23;;;1.27;;
52508;SDS011;38420;53.150;6.370;2023-07-13T13:27:47;3.33;;;1.40;;
52508;SDS011;38420;53.150;6.370;2023-07-13T13:30:16;3.90;;;1.73;;
52508;SDS011;38420;53.150;6.370;2023-07-13T13:32:43;5.78;;;2.03;;
52508;SDS011;38420;53.150;6.370;2023-07-13T13:35:14;6.28;;;1.63;;
52508;SDS011;38420;53.150;6.370;2023-07-13T13:37:45;4.13;;;1.50;;
52508;SDS011;38420;53.150;6.370;2023-07-13T13:40:16;7.82;;;1.95;;
52508;SDS011;38420;53.150;6.370;2023-07-13T13:42:44;7.90;;;1.88;;
52508;SDS011;38420;53.150;6.370;2023-07-13T13:45:10;3.95;;;1.70;;
52508;SDS011;38420;53.150;6.370;2023-07-13T13:47:37;7.90;;;1.88;;
52508;SDS011;38420;53.150;6.370;2023-07-13T13:50:15;6.82;;;1.95;;
52508;SDS011;38420;53.150;6.370;2023-07-13T13:52:43;5.80;;;1.80;;
52508;SDS011;38420;53.150;6.370;2023-07-13T13:55:16;7.70;;;2.20;;
52508;SDS011;38420;53.150;6.370;2023-07-13T13:57:44;5.15;;;2.15;;
52508;SDS011;38420;53.150;6.370;2023-07-13T14:00:11;6.72;;;2.10;;
52508;SDS011;38420;53.150;6.370;2023-07-13T14:02:40;5.05;;;2.00;;
52508;SDS011;38420;53.150;6.370;2023-07-13T14:05:11;5.20;;;2.17;;
52508;SDS011;38420;53.150;6.370;2023-07-13T14:07:38;4.95;;;1.70;;
52508;SDS011;38420;53.150;6.370;2023-07-13T14:10:08;4.82;;;1.88;;
52508;SDS011;38420;53.150;6.370;2023-07-13T14:12:43;4.68;;;1.58;;
52508;SDS011;38420;53.150;6.370;2023-07-13T14:15:16;4.30;;;1.40;;
52508;SDS011;38420;53.150;6.370;2023-07-13T14:17:46;4.05;;;1.50;;
52508;SDS011;38420;53.150;6.370;2023-07-13T14:20:15;3.40;;;1.33;;
52508;SDS011;38420;53.150;6.370;2023-07-13T14:22:41;5.55;;;2.60;;
52508;SDS011;38420;53.150;6.370;2023-07-13T14:25:10;5.25;;;1.33;;
52508;SDS011;38420;53.150;6.370;2023-07-13T14:27:37;3.65;;;1.50;;
52508;SDS011;38420;53.150;6.370;2023-07-13T14:30:07;7.13;;;1.50;;
52508;SDS011;38420;53.150;6.370;2023-07-13T14:32:39;6.00;;;2.20;;
52508;SDS011;38420;53.150;6.370;2023-07-13T14:35:05;3.95;;;1.45;;
52508;SDS011;38420;53.150;6.370;2023-07-13T14:37:31;4.20;;;1.50;;
52508;SDS011;38420;53.150;6.370;2023-07-13T14:39:57;7.63;;;2.28;;
52508;SDS011;38420;53.150;6.370;2023-07-13T14:42:23;4.65;;;1.65;;
52508;SDS011;38420;53.150;6.370;2023-07-13T14:44:48;5.97;;;1.70;;
52508;SDS011;38420;53.150;6.370;2023-07-13T14:47:15;5.40;;;1.60;;
52508;SDS011;38420;53.150;6.370;2023-07-13T14:49:43;3.97;;;1.50;;
52508;SDS011;38420;53.150;6.370;2023-07-13T14:54:42;6.93;;;2.55;;
52508;SDS011;38420;53.150;6.370;2023-07-13T14:57:15;4.75;;;1.85;;
52508;SDS011;38420;53.150;6.370;2023-07-13T14:59:42;7.05;;;1.73;;
52508;SDS011;38420;53.150;6.370;2023-07-13T15:02:18;8.25;;;1.95;;
52508;SDS011;38420;53.150;6.370;2023-07-13T15:04:44;5.90;;;1.70;;
52508;SDS011;38420;53.150;6.370;2023-07-13T15:07:11;4.40;;;1.98;;
52508;SDS011;38420;53.150;6.370;2023-07-13T15:09:38;6.07;;;2.30;;
52508;SDS011;38420;53.150;6.370;2023-07-13T15:12:04;7.43;;;1.73;;
52508;SDS011;38420;53.150;6.370;2023-07-13T15:14:30;5.70;;;2.03;;
52508;SDS011;38420;53.150;6.370;2023-07-13T15:16:56;4.40;;;1.65;;
52508;SDS011;38420;53.150;6.370;2023-07-13T15:19:21;6.75;;;1.75;;
52508;SDS011;38420;53.150;6.370;2023-07-13T15:21:48;8.52;;;2.30;;
52508;SDS011;38420;53.150;6.370;2023-07-13T15:24:17;7.28;;;2.63;;
52508;SDS011;38420;53.150;6.370;2023-07-13T15:26:42;7.57;;;2.00;;
52508;SDS011;38420;53.150;6.370;2023-07-13T15:29:10;5.97;;;2.17;;
52508;SDS011;38420;53.150;6.370;2023-07-13T15:31:37;7.18;;;2.58;;
52508;SDS011;38420;53.150;6.370;2023-07-13T15:34:07;6.90;;;1.80;;
52508;SDS011;38420;53.150;6.370;2023-07-13T15:36:40;6.28;;;2.42;;
52508;SDS011;38420;53.150;6.370;2023-07-13T15:39:05;4.90;;;2.00;;
52508;SDS011;38420;53.150;6.370;2023-07-13T15:41:31;7.47;;;2.38;;
52508;SDS011;38420;53.150;6.370;2023-07-13T15:43:59;7.93;;;2.17;;
52508;SDS011;38420;53.150;6.370;2023-07-13T15:46:29;6.28;;;2.58;;
52508;SDS011;38420;53.150;6.370;2023-07-13T15:48:56;14.90;;;3.55;;
52508;SDS011;38420;53.150;6.370;2023-07-13T15:51:24;6.38;;;2.30;;
52508;SDS011;38420;53.150;6.370;2023-07-13T15:56:23;6.82;;;2.10;;